createdAt,value
2023-01-17T00:02:12.174Z,39.30
2023-01-17T00:06:39.169Z,36.90
2023-01-17T00:10:39.192Z,39.30
2023-01-17T00:14:37.137Z,33.90
2023-01-17T00:18:35.160Z,38.70
2023-01-17T00:22:55.128Z,38.80
2023-01-17T00:27:07.179Z,32.90
2023-01-17T00:31:04.173Z,32.80
2023-01-17T00:35:01.173Z,34.30
2023-01-17T00:38:58.126Z,33.90
2023-01-17T00:42:55.201Z,36.40
2023-01-17T00:47:10.132Z,34.40
2023-01-17T00:51:25.178Z,37.90
2023-01-17T00:55:41.109Z,39.80
2023-01-17T00:59:56.138Z,35.00
2023-01-17T01:04:11.095Z,37.70
2023-01-17T01:08:26.099Z,39.10
2023-01-17T01:12:41.093Z,39.50
2023-01-17T01:16:57.205Z,36.10
2023-01-17T01:21:13.062Z,37.80
2023-01-17T01:25:28.095Z,36.00
2023-01-17T01:29:43.076Z,38.00
2023-01-17T01:33:40.108Z,36.40
2023-01-17T01:37:38.086Z,36.60
2023-01-17T01:41:36.063Z,32.10
2023-01-17T01:45:43.123Z,34.80
2023-01-17T01:53:40.038Z,38.90
2023-01-17T01:57:42.114Z,42.60
2023-01-17T02:01:40.199Z,40.30
2023-01-17T02:05:40.077Z,37.40
2023-01-17T02:09:39.025Z,36.50
2023-01-17T02:13:38.031Z,34.50
2023-01-17T02:17:46.034Z,38.50
2023-01-17T02:21:57.119Z,37.20
2023-01-17T02:26:13.118Z,33.20
2023-01-17T02:30:34.001Z,34.30
2023-01-17T02:34:50.034Z,36.00
2023-01-17T02:39:06.041Z,38.80
2023-01-17T02:43:16.965Z,34.90
2023-01-17T02:47:15.005Z,33.80
2023-01-17T02:51:12.937Z,34.30
2023-01-17T02:55:40.165Z,33.50
2023-01-17T02:59:50.001Z,30.90
2023-01-17T03:04:01.944Z,33.10
2023-01-17T03:07:59.924Z,30.80
2023-01-17T03:11:58.999Z,27.50
2023-01-17T03:15:56.943Z,33.80
2023-01-17T03:19:54.946Z,29.70
2023-01-17T03:23:55.078Z,30.20
2023-01-17T03:27:54.919Z,29.00
2023-01-17T03:31:52.908Z,31.00
2023-01-17T03:35:50.945Z,28.30
2023-01-17T03:39:48.871Z,28.00
2023-01-17T03:43:46.904Z,29.00
2023-01-17T03:47:44.929Z,28.60
2023-01-17T03:51:50.041Z,27.80
2023-01-17T03:55:47.854Z,30.40
2023-01-17T03:59:45.948Z,32.80
2023-01-17T04:03:43.840Z,31.40
2023-01-17T04:07:41.910Z,26.80
2023-01-17T04:11:39.935Z,25.70
2023-01-17T04:15:37.875Z,29.20
2023-01-17T04:19:35.849Z,25.70
2023-01-17T04:23:33.839Z,27.50
2023-01-17T04:27:31.861Z,25.30
2023-01-17T04:31:31.910Z,28.20
2023-01-17T04:35:29.825Z,29.70
2023-01-17T04:39:27.809Z,26.70
2023-01-17T04:43:25.802Z,26.70
2023-01-17T04:47:23.794Z,26.70
2023-01-17T04:51:21.794Z,24.30
2023-01-17T04:55:20.797Z,27.20
2023-01-17T04:59:18.842Z,25.10
2023-01-17T05:03:16.848Z,25.30
2023-01-17T05:07:14.763Z,22.50
2023-01-17T05:11:12.890Z,29.00
2023-01-17T05:15:10.772Z,26.90
2023-01-17T05:19:08.858Z,27.60
2023-01-17T05:23:10.836Z,26.30
2023-01-17T05:27:09.823Z,26.50
2023-01-17T05:31:07.827Z,26.70
2023-01-17T05:35:05.784Z,27.40
2023-01-17T05:39:03.698Z,27.70
2023-01-17T05:43:05.837Z,23.50
2023-01-17T05:47:03.724Z,26.10
2023-01-17T05:51:01.812Z,28.10
2023-01-17T05:54:59.744Z,26.50
2023-01-17T05:58:57.748Z,29.90
2023-01-17T06:02:55.804Z,27.00
2023-01-17T06:06:53.810Z,28.40
2023-01-17T06:10:51.699Z,29.20
2023-01-17T06:14:49.726Z,24.60
2023-01-17T06:18:49.701Z,26.70
2023-01-17T06:22:47.688Z,26.90
2023-01-17T06:26:45.755Z,30.90
2023-01-17T06:30:43.650Z,31.20
2023-01-17T06:34:41.719Z,31.20
2023-01-17T06:38:39.701Z,28.40
2023-01-17T06:42:37.625Z,29.70
2023-01-17T06:46:35.635Z,26.60
2023-01-17T06:50:33.612Z,30.80
2023-01-17T06:54:31.657Z,29.00
2023-01-17T06:58:29.685Z,25.80
2023-01-17T07:02:07.197Z,27.20
2023-01-17T07:05:31.163Z,26.90
2023-01-17T07:08:55.452Z,28.90
2023-01-17T07:12:19.294Z,32.00
2023-01-17T07:15:43.375Z,32.30
2023-01-17T07:19:07.462Z,33.00
2023-01-17T07:22:31.394Z,32.00
2023-01-17T07:26:00.436Z,29.50
2023-01-17T07:29:24.415Z,34.00
2023-01-17T07:32:55.324Z,34.00
2023-01-17T07:36:19.183Z,33.90
2023-01-17T07:39:43.001Z,30.80
2023-01-17T07:43:13.479Z,33.40
2023-01-17T07:46:37.409Z,32.90
2023-01-17T07:50:02.917Z,29.70
2023-01-17T07:53:28.568Z,27.70
2023-01-17T07:56:52.516Z,26.40
2023-01-17T08:00:16.797Z,25.40
2023-01-17T08:03:41.321Z,26.30
2023-01-17T08:07:05.320Z,26.10
2023-01-17T08:10:29.193Z,27.10
2023-01-17T08:13:57.528Z,29.00
2023-01-17T08:17:22.123Z,27.50
2023-01-17T08:20:46.413Z,25.50
2023-01-17T08:24:14.541Z,26.30
2023-01-17T08:27:38.364Z,28.60
2023-01-17T08:31:10.634Z,28.30
2023-01-17T08:34:34.838Z,23.90
2023-01-17T08:38:04.771Z,28.90
2023-01-17T08:41:28.724Z,28.10
2023-01-17T08:44:52.636Z,22.30
2023-01-17T08:48:16.803Z,23.70
2023-01-17T08:51:41.804Z,25.20
2023-01-17T08:55:09.083Z,22.20
2023-01-17T08:58:33.680Z,22.10
2023-01-17T09:01:58.377Z,26.60
2023-01-17T09:05:22.355Z,24.40
2023-01-17T09:08:47.108Z,31.50
2023-01-17T09:12:11.194Z,27.50
2023-01-17T09:15:35.591Z,25.30
2023-01-17T09:19:00.528Z,28.90
2023-01-17T09:22:24.713Z,25.00
2023-01-17T09:26:00.391Z,26.10
2023-01-17T09:29:24.239Z,21.60
2023-01-17T09:32:57.676Z,26.80
2023-01-17T09:36:22.208Z,22.80
2023-01-17T09:39:46.114Z,23.30
2023-01-17T09:43:26.640Z,27.70
2023-01-17T09:46:53.064Z,25.70
2023-01-17T09:50:35.851Z,25.40
2023-01-17T09:54:00.554Z,26.90
2023-01-17T09:57:52.184Z,29.30
2023-01-17T10:01:28.665Z,29.10
2023-01-17T10:05:16.412Z,25.40
2023-01-17T10:09:05.365Z,27.20
2023-01-17T10:12:35.078Z,27.70
2023-01-17T10:16:19.290Z,28.10
2023-01-17T10:20:13.856Z,25.30
2023-01-17T10:23:56.974Z,24.40
2023-01-17T10:27:31.593Z,28.30
2023-01-17T10:31:09.130Z,26.30
2023-01-17T10:34:53.328Z,29.00
2023-01-17T10:38:18.383Z,25.00
2023-01-17T10:41:46.258Z,24.60
2023-01-17T10:45:21.575Z,21.20
2023-01-17T10:48:52.851Z,15.90
2023-01-17T10:52:37.912Z,14.90
2023-01-17T10:56:02.324Z,21.70
2023-01-17T10:59:34.521Z,19.90
2023-01-17T11:03:00.024Z,13.30
2023-01-17T11:06:26.853Z,14.20
2023-01-17T11:09:53.329Z,11.90
2023-01-17T11:13:22.389Z,11.30
2023-01-17T11:16:46.665Z,12.20
2023-01-17T11:20:33.998Z,14.20
2023-01-17T11:23:58.189Z,11.10
2023-01-17T11:27:28.009Z,19.00
2023-01-17T11:30:56.816Z,20.50
2023-01-17T11:34:29.475Z,20.00
2023-01-17T11:37:54.488Z,25.20
2023-01-17T11:41:21.260Z,22.10
2023-01-17T11:44:45.189Z,26.20
2023-01-17T11:48:09.045Z,29.40
2023-01-17T11:51:35.867Z,34.40
2023-01-17T11:55:00.354Z,54.80
2023-01-17T11:58:24.642Z,57.10
2023-01-17T12:02:50.667Z,58.40
2023-01-17T12:06:57.775Z,42.40
2023-01-17T12:10:33.371Z,33.30
2023-01-17T12:14:27.615Z,32.90
2023-01-17T12:18:05.920Z,34.70
2023-01-17T12:21:39.021Z,37.60
2023-01-17T12:25:31.153Z,33.60
2023-01-17T12:29:10.601Z,30.10
2023-01-17T12:32:54.724Z,27.90
2023-01-17T12:36:48.511Z,24.80
2023-01-17T12:40:24.096Z,26.60
2023-01-17T12:43:48.556Z,32.90
2023-01-17T12:47:16.158Z,40.50
2023-01-17T12:50:45.767Z,34.30
2023-01-17T12:54:26.512Z,37.40
2023-01-17T12:58:00.657Z,26.90
2023-01-17T13:01:40.269Z,29.90
2023-01-17T13:05:26.499Z,31.10
2023-01-17T13:08:56.962Z,36.60
2023-01-17T13:12:23.738Z,29.40
2023-01-17T13:15:50.803Z,30.30
2023-01-17T13:19:44.710Z,23.20
2023-01-17T13:23:30.110Z,21.00
2023-01-17T13:26:57.267Z,18.20
2023-01-17T13:30:58.697Z,19.00
2023-01-17T13:34:45.423Z,20.90
2023-01-17T13:38:28.418Z,19.60
2023-01-17T13:41:55.257Z,20.20
2023-01-17T13:45:22.567Z,22.30
2023-01-17T13:48:46.483Z,19.40
2023-01-17T13:52:23.335Z,21.30
2023-01-17T13:55:53.420Z,18.70
2023-01-17T13:59:29.279Z,21.50
2023-01-17T14:02:55.609Z,25.70
2023-01-17T14:06:37.780Z,23.00
2023-01-17T14:10:01.895Z,26.20
2023-01-17T14:13:34.722Z,21.70
2023-01-17T14:17:22.987Z,25.20
2023-01-17T14:20:51.353Z,29.20
2023-01-17T14:24:19.362Z,26.00
2023-01-17T14:27:43.347Z,31.80
2023-01-17T14:31:27.155Z,34.20
2023-01-17T14:35:37.039Z,35.30
2023-01-17T14:39:39.059Z,34.40
2023-01-17T14:43:40.089Z,38.70
2023-01-17T14:47:37.961Z,34.90
2023-01-17T14:51:37.023Z,36.20
2023-01-17T14:55:36.006Z,36.80
2023-01-17T14:59:36.990Z,46.10
2023-01-17T15:03:35.077Z,39.30
2023-01-17T15:07:33.971Z,29.30
2023-01-17T15:11:40.983Z,35.20
2023-01-17T15:15:48.984Z,35.90
2023-01-17T15:19:57.917Z,59.10
2023-01-17T15:24:03.025Z,49.00
2023-01-17T15:28:00.931Z,51.70
2023-01-17T15:32:10.951Z,40.40
2023-01-17T15:36:17.917Z,43.00
2023-01-17T15:40:43.931Z,39.60
2023-01-17T15:44:48.633Z,42.60
2023-01-17T15:48:52.939Z,40.50
2023-01-17T15:53:02.967Z,41.10
2023-01-17T15:57:01.982Z,41.80
2023-01-17T16:01:00.025Z,39.10
2023-01-17T16:05:00.898Z,36.60
2023-01-17T16:09:06.858Z,42.50
2023-01-17T16:13:06.920Z,37.40
2023-01-17T16:17:10.892Z,54.00
2023-01-17T16:21:15.909Z,39.40
2023-01-17T16:25:14.083Z,36.70
2023-01-17T16:29:13.945Z,37.60
2023-01-17T16:33:11.926Z,41.70
2023-01-17T16:37:10.888Z,51.40
2023-01-17T16:41:09.930Z,48.40
2023-01-17T16:45:07.904Z,53.00
2023-01-17T16:49:05.805Z,69.70
2023-01-17T16:53:07.853Z,67.10
2023-01-17T16:57:05.809Z,81.80
2023-01-17T17:01:03.980Z,98.30
2023-01-17T17:05:01.779Z,73.60
2023-01-17T17:08:59.838Z,71.70
2023-01-17T17:13:05.044Z,70.00
2023-01-17T17:17:08.854Z,78.40
2023-01-17T17:21:06.826Z,103.10
2023-01-17T17:25:04.920Z,118.90
2023-01-17T17:29:05.848Z,151.20
2023-01-17T17:33:03.792Z,139.70
2023-01-17T17:37:03.669Z,130.60
2023-01-17T17:41:01.834Z,133.40
2023-01-17T17:44:59.816Z,101.40
2023-01-17T17:48:57.749Z,101.30
2023-01-17T17:52:55.891Z,89.50
2023-01-17T17:56:55.800Z,71.20
2023-01-17T18:00:53.741Z,72.30
2023-01-17T18:04:51.746Z,64.80
2023-01-17T18:08:50.759Z,55.30
2023-01-17T18:12:48.742Z,48.40
2023-01-17T18:16:53.798Z,42.30
2023-01-17T18:20:51.760Z,38.00
2023-01-17T18:24:49.875Z,45.50
2023-01-17T18:28:47.726Z,44.60
2023-01-17T18:32:45.669Z,41.30
2023-01-17T18:36:43.683Z,43.30
2023-01-17T18:40:41.695Z,47.40
2023-01-17T18:44:40.693Z,48.70
2023-01-17T18:48:38.735Z,47.00
2023-01-17T18:52:36.712Z,51.40
2023-01-17T18:56:37.709Z,54.10
2023-01-17T19:00:35.666Z,60.40
2023-01-17T19:04:34.669Z,54.90
2023-01-17T19:08:32.661Z,63.00
2023-01-17T19:12:30.642Z,67.50
2023-01-17T19:16:37.728Z,59.30
2023-01-17T19:24:33.764Z,60.10
2023-01-17T19:28:31.625Z,78.20
2023-01-17T19:32:29.621Z,90.00
2023-01-17T19:36:31.622Z,93.40
2023-01-17T19:40:32.590Z,78.30
2023-01-17T19:44:30.612Z,84.60
2023-01-17T19:48:44.629Z,74.20
2023-01-17T19:52:46.705Z,75.60
2023-01-17T19:56:44.579Z,71.90
2023-01-17T20:00:46.680Z,71.50
2023-01-17T20:04:44.569Z,71.30
2023-01-17T20:08:42.531Z,73.00
2023-01-17T20:12:40.576Z,79.00
2023-01-17T20:16:40.658Z,98.00
2023-01-17T20:20:55.786Z,128.00
2023-01-17T20:24:54.529Z,138.50
2023-01-17T20:28:54.969Z,136.00
2023-01-17T20:32:52.638Z,127.70
2023-01-17T20:36:50.530Z,113.80
2023-01-17T20:40:48.757Z,114.40
2023-01-17T20:44:47.529Z,109.10
2023-01-17T20:48:45.701Z,102.70
2023-01-17T20:52:44.841Z,114.00
2023-01-17T20:56:44.504Z,96.90
2023-01-17T21:00:44.533Z,136.10
2023-01-17T21:05:19.590Z,100.30
2023-01-17T21:09:17.565Z,130.00
2023-01-17T21:13:16.565Z,124.80
2023-01-17T21:17:14.470Z,126.40
2023-01-17T21:21:18.568Z,96.10
2023-01-17T21:25:16.461Z,102.20
2023-01-17T21:29:14.472Z,97.10
2023-01-17T21:33:12.710Z,98.60
2023-01-17T21:37:10.482Z,105.00
2023-01-17T21:41:11.442Z,107.80
2023-01-17T21:45:09.420Z,111.40
2023-01-17T21:49:07.591Z,108.10
2023-01-17T21:53:05.464Z,112.30
2023-01-17T21:57:25.427Z,108.20
2023-01-17T22:01:36.862Z,116.00
2023-01-17T22:05:34.434Z,92.30
2023-01-17T22:09:32.427Z,97.80
2023-01-17T22:13:32.430Z,93.70
2023-01-17T22:17:30.349Z,96.80
2023-01-17T22:21:28.481Z,92.60
2023-01-17T22:25:27.397Z,107.50
2023-01-17T22:29:25.479Z,108.00
2023-01-17T22:33:24.536Z,91.70
2023-01-17T22:37:22.514Z,91.60
2023-01-17T22:41:41.377Z,92.40
2023-01-17T22:45:39.606Z,92.10
2023-01-17T22:49:37.319Z,79.60
2023-01-17T22:53:35.324Z,75.60
2023-01-17T22:57:35.319Z,68.10
2023-01-17T23:01:37.356Z,66.90
2023-01-17T23:05:35.344Z,71.10
2023-01-17T23:09:33.414Z,69.50
2023-01-17T23:13:38.358Z,73.30
2023-01-17T23:17:58.333Z,73.40
2023-01-17T23:22:16.360Z,70.20
2023-01-17T23:26:15.321Z,73.90
2023-01-17T23:30:13.344Z,72.10
2023-01-17T23:34:11.262Z,68.40
2023-01-17T23:38:26.363Z,73.20
2023-01-17T23:42:41.272Z,73.80
2023-01-17T23:46:40.344Z,74.10
2023-01-17T23:50:38.505Z,74.40
2023-01-17T23:54:38.215Z,68.20
2023-01-17T23:58:38.244Z,73.50
